Time;durP1;ratioP1;P1;durP2;ratioP2;P2;SDS_P1;SDS_P2;PMS_P1;PMS_P2;Temp;Humidity;BMP_temperature;BMP_pressure;BME280_temperature;BME280_humidity;BME280_pressure;Samples;Min_cycle;Max_cycle;Signal;HPM_P1;HPM_P2
2021/04/28 00:01:41;;;;;;;9.85;5.50;;;;;;;6.16;70.76;100782.66;3579869;40;20052;-59
2021/04/28 00:04:07;;;;;;;9.38;5.68;;;;;;;6.12;71.63;100784.69;3577814;40;20037;-59
2021/04/28 00:06:34;;;;;;;7.95;5.57;;;;;;;6.02;72.53;100786.28;3578330;40;20057;-59
2021/04/28 00:09:01;;;;;;;7.47;5.30;;;;;;;5.97;73.20;100782.13;3577560;40;20047;-59
2021/04/28 00:11:27;;;;;;;7.80;5.40;;;;;;;5.86;73.10;100774.00;3577649;40;20049;-59
2021/04/28 00:13:53;;;;;;;9.27;5.40;;;;;;;5.89;72.63;100776.44;3577327;40;20044;-58
2021/04/28 00:16:20;;;;;;;7.38;5.47;;;;;;;5.83;73.90;100776.91;3577743;40;20057;-59
2021/04/28 00:18:46;;;;;;;6.95;5.07;;;;;;;5.82;74.30;100771.66;3578322;40;20062;-58
2021/04/28 00:21:13;;;;;;;11.10;5.05;;;;;;;5.87;72.14;100774.84;3577739;40;20064;-58
2021/04/28 00:23:39;;;;;;;7.88;5.00;;;;;;;5.80;71.64;100774.44;3576664;40;20032;-59
2021/04/28 00:26:06;;;;;;;11.05;4.60;;;;;;;5.74;72.57;100772.16;3577057;40;20389;-59
2021/04/28 00:28:32;;;;;;;6.53;4.38;;;;;;;5.75;72.78;100764.06;3578166;40;20056;-59
2021/04/28 00:30:58;;;;;;;5.75;4.25;;;;;;;5.80;71.52;100763.75;3577571;40;20059;-59
2021/04/28 00:33:24;;;;;;;7.43;4.97;;;;;;;5.76;72.57;100759.59;3577083;40;20040;-61
2021/04/28 00:35:50;;;;;;;7.68;4.38;;;;;;;5.84;72.69;100759.03;3577450;40;20401;-61
2021/04/28 00:38:16;;;;;;;6.85;4.85;;;;;;;5.73;74.09;100755.31;3576674;40;20114;-60
2021/04/28 00:40:42;;;;;;;7.18;4.55;;;;;;;5.65;75.54;100749.63;3575993;40;20076;-61
2021/04/28 00:43:09;;;;;;;6.00;5.13;;;;;;;5.71;76.27;100751.03;3571055;40;20434;-61
2021/04/28 00:45:36;;;;;;;10.15;5.07;;;;;;;5.60;76.70;100746.44;3571846;40;20067;-59
2021/04/28 00:50:34;;;;;;;7.78;5.22;;;;;;;5.41;77.89;100741.53;3595793;23;571050;-58
2021/04/28 00:53:01;;;;;;;10.88;4.82;;;;;;;5.39;78.49;100743.47;3578405;40;20045;-61
2021/04/28 00:55:27;;;;;;;6.18;4.72;;;;;;;5.28;77.59;100735.31;3579612;40;20070;-59
2021/04/28 00:57:53;;;;;;;8.20;4.85;;;;;;;5.26;78.45;100733.59;3578943;40;20052;-59
2021/04/28 01:00:22;;;;;;;6.50;4.45;;;;;;;5.21;76.57;100733.06;3579043;40;20052;-59
2021/04/28 01:02:48;;;;;;;7.85;4.75;;;;;;;5.19;76.76;100732.31;3577648;40;20415;-59
2021/04/28 01:05:15;;;;;;;10.68;5.00;;;;;;;5.18;77.77;100735.09;3578956;40;20051;-59
2021/04/28 01:07:43;;;;;;;6.78;4.93;;;;;;;5.09;77.94;100732.09;3580082;40;20048;-59
2021/04/28 01:10:12;;;;;;;11.68;5.18;;;;;;;5.06;78.09;100731.44;3579381;40;20125;-59
2021/04/28 01:12:39;;;;;;;6.70;5.05;;;;;;;5.08;78.25;100726.88;3578798;40;20431;-59
2021/04/28 01:15:07;;;;;;;6.60;4.95;;;;;;;5.00;76.56;100721.19;3579135;40;20084;-58
2021/04/28 01:17:34;;;;;;;7.82;4.43;;;;;;;4.94;77.72;100727.78;3582318;40;20055;-58
2021/04/28 01:20:01;;;;;;;7.03;4.97;;;;;;;4.89;77.08;100714.75;3580678;40;20117;-58
2021/04/28 01:22:27;;;;;;;7.57;4.90;;;;;;;4.88;77.56;100717.53;3580769;40;20055;-60
2021/04/28 01:24:54;;;;;;;9.90;4.68;;;;;;;4.90;77.23;100712.94;3581105;40;20056;-59
2021/04/28 01:27:26;;;;;;;6.35;4.78;;;;;;;4.77;78.38;100709.38;3580538;40;20036;-58
2021/04/28 01:29:54;;;;;;;10.88;5.22;;;;;;;4.74;78.54;100710.44;3580591;40;20068;-57
2021/04/28 01:32:22;;;;;;;8.23;4.95;;;;;;;4.78;78.14;100708.44;3580872;40;20057;-59
2021/04/28 01:34:50;;;;;;;7.88;4.95;;;;;;;4.83;78.93;100707.19;3579898;40;20398;-59
2021/04/28 01:37:17;;;;;;;7.07;4.68;;;;;;;4.71;79.38;100706.19;3579925;40;20418;-60
2021/04/28 01:39:45;;;;;;;7.03;5.10;;;;;;;4.68;80.20;100710.84;3582366;40;20061;-60
2021/04/28 01:42:12;;;;;;;6.60;5.10;;;;;;;4.76;79.47;100707.69;3580713;40;20123;-58
2021/04/28 01:44:39;;;;;;;6.20;4.65;;;;;;;4.63;80.89;100705.00;3580773;40;20142;-61
2021/04/28 01:47:06;;;;;;;7.00;5.05;;;;;;;4.53;81.62;100708.28;3581724;40;20061;-58
2021/04/28 01:49:33;;;;;;;7.30;5.03;;;;;;;4.51;81.87;100704.00;3581784;40;20449;-59
2021/04/28 01:52:00;;;;;;;9.50;5.13;;;;;;;4.47;83.10;100708.66;3581982;40;20060;-60
2021/04/28 01:54:26;;;;;;;6.20;4.95;;;;;;;4.46;83.21;100701.63;3580427;40;20153;-59
2021/04/28 01:56:53;;;;;;;10.38;4.97;;;;;;;4.45;83.47;100699.91;3581374;40;20056;-59
2021/04/28 01:59:22;;;;;;;8.52;5.35;;;;;;;4.38;84.20;100703.94;3581098;40;20152;-60
2021/04/28 02:01:50;;;;;;;8.98;5.25;;;;;;;4.34;84.44;100697.09;3581567;40;20129;-58
2021/04/28 02:04:17;;;;;;;8.38;4.88;;;;;;;4.28;84.85;100700.16;3580012;40;20461;-59
2021/04/28 02:06:44;;;;;;;9.18;5.28;;;;;;;4.26;84.86;100699.41;3581771;40;20044;-58
2021/04/28 02:09:11;;;;;;;7.85;5.38;;;;;;;4.24;85.11;100699.50;3581255;40;20064;-58
2021/04/28 02:11:37;;;;;;;10.15;5.10;;;;;;;4.25;86.12;100703.00;3581753;40;20049;-59
2021/04/28 02:14:04;;;;;;;10.30;5.40;;;;;;;4.20;85.43;100696.16;3579721;40;20147;-58
2021/04/28 02:16:37;;;;;;;11.13;5.32;;;;;;;4.25;85.08;100698.53;3581442;40;20043;-59
2021/04/28 02:19:05;;;;;;;11.02;5.15;;;;;;;4.27;85.21;100698.44;3580974;40;20041;-58
2021/04/28 02:21:31;;;;;;;9.68;5.30;;;;;;;4.20;85.97;100693.50;3581319;40;20169;-59
2021/04/28 02:23:57;;;;;;;7.20;5.07;;;;;;;4.16;87.21;100694.66;3580243;40;20051;-61
2021/04/28 02:26:23;;;;;;;7.43;5.05;;;;;;;4.13;86.56;100694.84;3581327;40;20049;-58
2021/04/28 02:28:49;;;;;;;7.18;5.25;;;;;;;4.15;86.51;100687.63;3581086;40;20149;-59
2021/04/28 02:31:15;;;;;;;10.05;5.30;;;;;;;4.10;87.65;100686.22;3581497;40;20045;-60
2021/04/28 02:33:42;;;;;;;8.90;5.60;;;;;;;4.03;89.45;100683.06;3579824;40;20048;-60
2021/04/28 02:36:09;;;;;;;7.30;5.22;;;;;;;4.04;87.98;100684.81;3580722;40;20421;-59
2021/04/28 02:38:40;;;;;;;9.70;5.45;;;;;;;4.06;88.10;100676.72;3581199;40;20071;-59
2021/04/28 02:41:06;;;;;;;8.07;5.18;;;;;;;4.04;88.97;100671.47;3580837;40;20375;-58
2021/04/28 02:43:35;;;;;;;8.00;5.57;;;;;;;3.96;90.04;100671.09;3580836;40;20328;-59
2021/04/28 02:46:01;;;;;;;11.43;5.82;;;;;;;3.89;91.43;100669.78;3582028;40;20072;-59
2021/04/28 02:48:29;;;;;;;8.07;5.35;;;;;;;3.92;89.79;100670.47;3582570;40;20384;-58
2021/04/28 02:50:56;;;;;;;10.23;5.45;;;;;;;3.97;89.40;100664.84;3583109;40;20109;-61
2021/04/28 02:53:26;;;;;;;8.35;5.75;;;;;;;3.85;92.38;100666.47;3581924;40;20392;-59
2021/04/28 02:55:53;;;;;;;10.38;5.80;;;;;;;3.81;92.21;100662.28;3582931;40;20048;-58
2021/04/28 02:58:20;;;;;;;8.85;5.68;;;;;;;3.73;92.97;100661.94;3582017;40;20040;-59
2021/04/28 03:00:47;;;;;;;10.18;5.40;;;;;;;3.82;90.97;100656.88;3582509;40;20117;-60
2021/04/28 03:03:14;;;;;;;10.60;5.65;;;;;;;3.77;92.53;100660.78;3581608;40;20056;-61
2021/04/28 03:05:40;;;;;;;7.20;5.30;;;;;;;3.72;91.81;100660.22;3582212;40;20060;-58
2021/04/28 03:08:07;;;;;;;9.20;5.43;;;;;;;3.69;92.92;100661.25;3581807;40;20055;-57
2021/04/28 03:10:34;;;;;;;7.40;5.40;;;;;;;3.66;94.42;100664.13;3583382;40;20129;-57
2021/04/28 03:13:00;;;;;;;11.35;6.30;;;;;;;3.60;95.68;100667.19;3581833;40;20029;-59
2021/04/28 03:15:27;;;;;;;10.23;5.70;;;;;;;3.53;95.49;100653.38;3583030;40;20049;-58
2021/04/28 03:17:54;;;;;;;8.88;5.20;;;;;;;3.53;95.87;100655.19;3582551;40;20284;-57
2021/04/28 03:20:22;;;;;;;7.40;5.53;;;;;;;3.45;96.80;100650.38;3581884;40;20072;-58
2021/04/28 03:22:48;;;;;;;11.82;6.07;;;;;;;3.45;96.16;100656.53;3581616;40;20426;-58
2021/04/28 03:25:15;;;;;;;11.73;5.85;;;;;;;3.49;95.98;100651.88;3582502;40;20104;-58
2021/04/28 03:27:41;;;;;;;7.70;5.47;;;;;;;3.47;95.45;100643.13;3582233;40;20056;-59
2021/04/28 03:30:08;;;;;;;8.88;6.10;;;;;;;3.56;96.25;100647.03;3580939;40;20044;-58
2021/04/28 03:32:34;;;;;;;9.95;5.32;;;;;;;3.47;95.86;100651.09;3582060;40;20143;-58
2021/04/28 03:35:01;;;;;;;8.90;5.93;;;;;;;3.40;96.61;100644.47;3578269;40;20142;-60
2021/04/28 03:37:27;;;;;;;11.77;6.55;;;;;;;3.34;98.41;100648.34;3582153;40;20142;-59
2021/04/28 03:39:53;;;;;;;10.75;6.40;;;;;;;3.29;99.62;100645.13;3581384;40;20064;-59
2021/04/28 03:42:22;;;;;;;8.20;6.00;;;;;;;3.31;99.17;100638.78;3582117;40;20059;-59
2021/04/28 03:44:48;;;;;;;9.63;6.50;;;;;;;3.22;99.14;100649.97;3581981;40;20060;-57
2021/04/28 03:47:14;;;;;;;8.77;6.00;;;;;;;3.19;100.00;100649.31;3581443;40;20048;-59
2021/04/28 03:49:40;;;;;;;10.13;6.03;;;;;;;3.14;100.00;100642.47;3582127;40;20439;-60
2021/04/28 03:52:06;;;;;;;9.90;6.07;;;;;;;3.02;100.00;100645.88;3581530;40;20071;-61
2021/04/28 03:54:32;;;;;;;9.93;6.72;;;;;;;3.08;100.00;100642.84;3581607;40;20056;-59
2021/04/28 03:56:58;;;;;;;10.30;6.90;;;;;;;2.98;100.00;100647.00;3582057;40;20316;-59
2021/04/28 03:59:25;;;;;;;8.52;6.13;;;;;;;2.93;100.00;100643.75;3581965;40;20051;-57
2021/04/28 04:01:51;;;;;;;10.02;6.20;;;;;;;2.90;100.00;100644.81;3581768;40;20420;-60
2021/04/28 04:04:17;;;;;;;9.00;6.13;;;;;;;2.97;100.00;100645.28;3581667;40;20045;-58
2021/04/28 04:06:43;;;;;;;10.88;7.10;;;;;;;2.96;100.00;100648.91;3582453;40;20040;-58
2021/04/28 04:09:09;;;;;;;12.70;6.55;;;;;;;2.85;100.00;100646.88;3581984;40;20041;-58
2021/04/28 04:11:35;;;;;;;10.95;6.22;;;;;;;2.85;100.00;100646.03;3582263;40;20053;-57
2021/04/28 04:14:01;;;;;;;8.20;5.80;;;;;;;2.81;100.00;100650.66;3581974;40;20041;-59
2021/04/28 04:16:28;;;;;;;10.93;6.50;;;;;;;2.82;100.00;100644.41;3582198;40;20468;-58
2021/04/28 04:18:54;;;;;;;13.27;5.88;;;;;;;2.78;100.00;100646.41;3582147;40;20052;-59
2021/04/28 04:21:20;;;;;;;9.73;7.13;;;;;;;2.79;100.00;100642.78;3581774;40;20072;-58
2021/04/28 04:23:46;;;;;;;9.88;6.47;;;;;;;2.77;100.00;100644.69;3581456;40;20084;-59
2021/04/28 04:26:12;;;;;;;8.40;6.07;;;;;;;2.79;100.00;100641.94;3581711;40;20048;-59
2021/04/28 04:28:38;;;;;;;9.82;6.43;;;;;;;2.80;100.00;100644.50;3581954;40;20056;-59
2021/04/28 04:31:04;;;;;;;10.90;6.65;;;;;;;2.80;100.00;100639.19;3581506;40;20387;-58
2021/04/28 04:33:31;;;;;;;11.15;6.10;;;;;;;2.85;100.00;100636.25;3581616;40;20053;-59
2021/04/28 04:35:57;;;;;;;16.33;6.78;;;;;;;2.94;100.00;100632.19;3582153;40;20405;-59
2021/04/28 04:38:23;;;;;;;9.73;5.80;;;;;;;2.87;100.00;100636.16;3580877;40;20049;-58
2021/04/28 04:40:49;;;;;;;13.45;6.57;;;;;;;2.84;100.00;100644.31;3581710;40;20041;-58
2021/04/28 04:43:15;;;;;;;12.15;6.57;;;;;;;2.79;100.00;100634.81;3581049;40;20056;-59
2021/04/28 04:48:09;;;;;;;10.23;6.78;;;;;;;2.79;100.00;100632.16;3608121;23;20033;-58
2021/04/28 04:50:37;;;;;;;10.93;6.43;;;;;;;2.83;100.00;100642.59;3571326;40;20049;-60
2021/04/28 04:53:04;;;;;;;10.88;6.07;;;;;;;2.84;100.00;100631.03;3570668;40;20085;-60
2021/04/28 04:55:30;;;;;;;9.02;6.32;;;;;;;2.91;100.00;100627.88;3571287;40;20425;-58
2021/04/28 04:57:56;;;;;;;9.90;6.40;;;;;;;2.96;100.00;100633.81;3571090;40;20041;-58
2021/04/28 05:00:24;;;;;;;13.35;7.00;;;;;;;2.94;100.00;100633.03;3571821;40;20105;-60
2021/04/28 05:02:50;;;;;;;10.30;6.57;;;;;;;2.96;100.00;100639.13;3571237;40;20055;-57
2021/04/28 05:05:17;;;;;;;10.60;7.05;;;;;;;2.98;100.00;100637.22;3571305;40;20307;-58
2021/04/28 05:07:44;;;;;;;8.82;6.50;;;;;;;3.04;100.00;100636.00;3570280;40;20418;-61
2021/04/28 05:10:12;;;;;;;10.57;6.75;;;;;;;2.96;100.00;100633.81;3570191;40;20048;-59
2021/04/28 05:12:38;;;;;;;10.07;6.65;;;;;;;3.11;100.00;100637.31;3570759;40;20096;-59
2021/04/28 05:15:05;;;;;;;9.75;6.88;;;;;;;3.14;100.00;100645.13;3571447;40;20386;-58
2021/04/28 05:17:32;;;;;;;10.05;6.30;;;;;;;3.19;100.00;100636.84;3570282;40;20045;-59
2021/04/28 05:19:58;;;;;;;9.13;6.70;;;;;;;3.21;100.00;100642.06;3571818;40;20033;-59
2021/04/28 05:22:26;;;;;;;15.00;7.10;;;;;;;3.24;100.00;100631.25;3570848;40;20048;-58
2021/04/28 05:24:53;;;;;;;12.98;6.88;;;;;;;3.30;100.00;100633.56;3571794;40;20049;-58
2021/04/28 05:27:19;;;;;;;8.68;6.30;;;;;;;3.47;100.00;100633.34;3571155;40;20045;-58
2021/04/28 05:29:45;;;;;;;13.52;6.95;;;;;;;3.54;100.00;100638.28;3571674;40;20402;-60
2021/04/28 05:32:11;;;;;;;10.10;6.00;;;;;;;3.56;100.00;100631.91;3569688;40;20045;-58
2021/04/28 05:34:37;;;;;;;10.88;6.38;;;;;;;3.59;100.00;100630.84;3570985;40;20039;-58
2021/04/28 05:37:04;;;;;;;10.45;6.43;;;;;;;3.58;100.00;100631.81;3572192;40;20058;-60
2021/04/28 05:39:30;;;;;;;10.07;6.43;;;;;;;3.71;99.48;100624.78;3570684;40;20551;-61
2021/04/28 05:41:57;;;;;;;11.38;6.28;;;;;;;3.70;98.10;100622.22;3571844;40;20283;-59
2021/04/28 05:44:23;;;;;;;8.25;5.65;;;;;;;3.78;97.31;100614.56;3571344;40;20071;-60
2021/04/28 05:46:49;;;;;;;11.65;6.22;;;;;;;4.04;96.93;100611.06;3571809;40;20061;-59
2021/04/28 05:49:15;;;;;;;11.90;6.60;;;;;;;4.29;93.22;100608.63;3570880;40;20069;-61
2021/04/28 05:51:41;;;;;;;8.88;6.07;;;;;;;4.73;90.38;100613.63;3571041;40;20297;-61
2021/04/28 05:54:08;;;;;;;9.50;5.72;;;;;;;4.85;88.61;100616.41;3570567;40;20041;-57
2021/04/28 05:56:37;;;;;;;9.80;6.05;;;;;;;4.89;86.43;100610.75;3570930;40;20053;-58
2021/04/28 05:59:04;;;;;;;7.78;5.82;;;;;;;4.88;87.75;100614.38;3569825;40;20174;-58
2021/04/28 06:01:30;;;;;;;9.55;5.82;;;;;;;4.87;89.52;100614.47;3571620;40;20051;-58
2021/04/28 06:03:56;;;;;;;9.68;5.93;;;;;;;4.91;88.34;100616.81;3571147;40;20045;-60
2021/04/28 06:06:22;;;;;;;9.70;6.07;;;;;;;4.89;85.88;100613.41;3571473;40;20066;-58
2021/04/28 06:08:49;;;;;;;9.05;5.80;;;;;;;5.01;89.63;100616.22;3571395;40;20060;-61
2021/04/28 06:11:15;;;;;;;8.02;5.30;;;;;;;5.53;85.74;100611.69;3570034;40;20314;-60
2021/04/28 06:13:41;;;;;;;9.63;5.70;;;;;;;5.77;82.59;100606.38;3570673;40;20052;-57
2021/04/28 06:16:08;;;;;;;7.60;5.70;;;;;;;6.18;79.32;100596.31;3570165;40;20057;-59
2021/04/28 06:18:34;;;;;;;8.40;5.78;;;;;;;6.07;79.36;100597.97;3570689;40;20055;-58
2021/04/28 06:21:00;;;;;;;7.00;5.40;;;;;;;6.31;76.73;100603.31;3570717;40;20434;-61
2021/04/28 06:23:25;;;;;;;9.82;5.40;;;;;;;6.29;76.93;100597.22;3569222;40;20055;-58
2021/04/28 06:25:51;;;;;;;8.52;5.43;;;;;;;6.35;79.58;100603.09;3570968;40;20061;-59
2021/04/28 06:28:17;;;;;;;9.00;5.80;;;;;;;6.39;77.88;100596.53;3570484;40;20052;-59
2021/04/28 06:30:43;;;;;;;12.82;6.25;;;;;;;6.40;79.90;100598.25;3570124;40;20047;-59
2021/04/28 06:33:10;;;;;;;7.97;5.35;;;;;;;6.26;77.64;100600.13;3567159;40;20068;-58
2021/04/28 06:35:36;;;;;;;9.45;5.68;;;;;;;6.50;77.77;100604.59;3571191;40;20056;-60
2021/04/28 06:38:02;;;;;;;8.48;5.38;;;;;;;6.62;76.73;100605.50;3567490;40;20119;-59
2021/04/28 06:40:28;;;;;;;10.13;6.25;;;;;;;6.73;75.33;100605.53;3568747;40;20057;-60
2021/04/28 06:42:54;;;;;;;8.02;5.60;;;;;;;6.86;75.82;100601.91;3568818;40;20037;-62
2021/04/28 06:45:20;;;;;;;8.30;5.35;;;;;;;7.15;75.52;100596.97;3569800;40;20107;-59
2021/04/28 06:47:46;;;;;;;16.65;5.80;;;;;;;7.17;76.05;100595.88;3570523;40;20385;-61
2021/04/28 06:50:13;;;;;;;9.55;5.65;;;;;;;7.20;75.69;100592.13;3570783;40;20048;-58
2021/04/28 06:52:43;;;;;;;8.98;5.07;;;;;;;7.43;73.25;100592.09;3568672;40;20061;-59
2021/04/28 06:55:10;;;;;;;8.88;5.57;;;;;;;7.12;74.54;100594.53;3570312;40;20059;-59
2021/04/28 06:57:36;;;;;;;11.57;5.45;;;;;;;6.81;75.49;100594.25;3571069;40;20101;-58
2021/04/28 07:00:03;;;;;;;10.98;6.30;;;;;;;6.70;76.59;100597.75;3570398;40;20064;-58
2021/04/28 07:02:29;;;;;;;9.38;5.47;;;;;;;6.69;78.14;100595.19;3570471;40;20509;-58
2021/04/28 07:04:55;;;;;;;9.35;5.50;;;;;;;6.71;77.47;100593.25;3569928;40;20045;-60
2021/04/28 07:07:23;;;;;;;8.40;5.10;;;;;;;6.82;78.01;100596.78;3570268;40;20146;-59
2021/04/28 07:09:49;;;;;;;9.23;5.63;;;;;;;6.94;76.86;100594.16;3569215;40;20033;-59
2021/04/28 07:12:15;;;;;;;7.32;5.75;;;;;;;7.09;77.85;100597.44;3570866;40;20060;-59
2021/04/28 07:14:41;;;;;;;7.78;5.05;;;;;;;7.34;74.70;100599.88;3570696;40;20052;-58
2021/04/28 07:17:08;;;;;;;7.25;5.63;;;;;;;7.36;76.64;100600.63;3569555;40;20080;-59
2021/04/28 07:19:34;;;;;;;11.15;6.40;;;;;;;7.47;76.47;100593.56;3569887;40;20311;-60
2021/04/28 07:22:00;;;;;;;8.52;5.32;;;;;;;7.70;77.28;100591.72;3569444;40;20417;-59
2021/04/28 07:24:27;;;;;;;7.32;5.00;;;;;;;7.97;74.12;100593.13;3570309;40;20843;-58
2021/04/28 07:26:53;;;;;;;7.65;5.32;;;;;;;8.26;72.79;100593.41;3570283;40;20052;-59
2021/04/28 07:29:20;;;;;;;9.18;5.22;;;;;;;8.45;71.28;100587.38;3569519;40;20057;-61
2021/04/28 07:31:46;;;;;;;7.97;5.60;;;;;;;8.64;69.87;100588.50;3570674;40;20108;-59
2021/04/28 07:34:12;;;;;;;9.45;5.88;;;;;;;8.54;69.64;100591.97;3570620;40;20315;-59
2021/04/28 07:36:38;;;;;;;11.30;6.07;;;;;;;8.97;68.14;100590.13;3572056;40;20065;-57
2021/04/28 07:39:06;;;;;;;7.38;5.80;;;;;;;9.17;68.71;100593.78;3570329;40;20049;-58
2021/04/28 07:41:33;;;;;;;8.48;5.65;;;;;;;9.06;70.40;100586.63;3570484;40;20042;-58
2021/04/28 07:43:59;;;;;;;8.75;5.55;;;;;;;9.25;67.58;100596.63;3570665;40;20061;-58
2021/04/28 07:46:25;;;;;;;10.63;6.05;;;;;;;9.65;65.80;100586.88;3571220;40;20083;-58
2021/04/28 07:48:51;;;;;;;9.75;5.72;;;;;;;9.42;65.91;100592.47;3572320;40;20056;-60
2021/04/28 07:51:17;;;;;;;9.38;5.82;;;;;;;9.59;66.54;100588.28;3570111;40;20053;-61
2021/04/28 07:53:43;;;;;;;7.28;5.13;;;;;;;9.75;64.21;100586.94;3572037;40;20402;-58
2021/04/28 07:56:09;;;;;;;10.18;5.80;;;;;;;10.08;62.20;100583.00;3572574;40;20044;-61
2021/04/28 07:58:36;;;;;;;10.65;5.38;;;;;;;10.11;61.82;100581.88;3571525;40;20069;-59
2021/04/28 08:01:02;;;;;;;8.27;5.72;;;;;;;10.07;63.07;100581.34;3571630;40;20049;-59
2021/04/28 08:03:28;;;;;;;10.07;5.82;;;;;;;10.18;66.68;100589.25;3570707;40;20872;-60
2021/04/28 08:05:54;;;;;;;8.82;5.50;;;;;;;10.33;65.45;100580.75;3571720;40;20057;-59
2021/04/28 08:08:20;;;;;;;8.15;5.80;;;;;;;10.73;65.82;100582.47;3571367;40;20117;-61
2021/04/28 08:10:46;;;;;;;7.15;5.40;;;;;;;10.79;62.20;100579.22;3572110;40;20379;-60
2021/04/28 08:13:12;;;;;;;8.90;5.88;;;;;;;11.05;62.95;100576.72;3570764;40;20069;-60
2021/04/28 08:15:40;;;;;;;7.72;5.65;;;;;;;10.92;62.06;100567.28;3570197;40;20118;-59
2021/04/28 08:18:06;;;;;;;8.25;5.65;;;;;;;10.77;65.11;100562.34;3571377;40;20067;-59
2021/04/28 08:20:34;;;;;;;10.52;5.22;;;;;;;10.84;62.43;100563.47;3570724;40;20056;-58
2021/04/28 08:23:00;;;;;;;6.75;5.22;;;;;;;11.26;62.35;100564.03;3570205;40;20280;-60
2021/04/28 08:25:26;;;;;;;8.73;5.82;;;;;;;11.42;59.89;100558.03;3571270;40;20037;-59
2021/04/28 08:27:52;;;;;;;8.43;5.47;;;;;;;11.72;59.26;100556.88;3571058;40;20536;-59
2021/04/28 08:30:19;;;;;;;10.35;5.32;;;;;;;11.85;58.50;100551.97;3570214;40;20052;-60
2021/04/28 08:32:46;;;;;;;11.55;5.50;;;;;;;12.06;55.74;100558.97;3569397;40;20426;-58
2021/04/28 08:35:14;;;;;;;8.88;5.43;;;;;;;12.19;55.16;100554.03;3571236;40;20072;-58
2021/04/28 08:37:40;;;;;;;10.70;5.50;;;;;;;12.02;53.74;100552.19;3571772;40;20042;-58
2021/04/28 08:40:08;;;;;;;8.55;6.35;;;;;;;12.23;55.33;100551.88;3569560;40;20515;-60
2021/04/28 08:42:34;;;;;;;8.00;5.47;;;;;;;12.40;51.68;100558.25;3568715;40;20149;-61
2021/04/28 08:45:00;;;;;;;6.90;5.78;;;;;;;12.31;50.55;100551.94;3570099;40;20068;-59
2021/04/28 08:47:26;;;;;;;8.13;5.22;;;;;;;12.59;50.08;100555.38;3568837;40;20065;-59
2021/04/28 08:49:53;;;;;;;8.27;5.82;;;;;;;12.55;50.39;100551.28;3570662;40;20040;-59
2021/04/28 08:52:20;;;;;;;10.48;5.97;;;;;;;12.87;49.55;100541.75;3570291;40;20045;-59
2021/04/28 08:54:46;;;;;;;10.65;5.90;;;;;;;12.62;50.50;100549.66;3570748;40;20045;-59
2021/04/28 08:57:12;;;;;;;8.57;5.88;;;;;;;12.84;51.52;100546.59;3571210;40;20168;-59
2021/04/28 08:59:38;;;;;;;10.77;6.38;;;;;;;12.80;48.14;100541.50;3570918;40;20401;-61
2021/04/28 09:02:15;;;;;;;10.38;5.97;;;;;;;12.82;49.88;100541.34;3570490;40;20411;-58
2021/04/28 09:04:41;;;;;;;7.97;5.30;;;;;;;13.12;49.90;100540.03;3571614;40;20045;-61
2021/04/28 09:07:08;;;;;;;6.57;5.45;;;;;;;13.44;46.80;100540.38;3570189;40;20324;-61
2021/04/28 09:09:34;;;;;;;13.00;6.18;;;;;;;13.17;47.27;100542.25;3570978;40;20476;-61
2021/04/28 09:12:02;;;;;;;8.20;5.70;;;;;;;13.18;46.97;100535.84;3570263;40;20060;-59
2021/04/28 09:14:32;;;;;;;10.27;6.22;;;;;;;13.45;47.33;100534.78;3571135;40;20055;-59
2021/04/28 09:17:01;;;;;;;11.02;6.47;;;;;;;13.31;46.93;100538.94;3570936;40;20057;-60
2021/04/28 09:19:30;;;;;;;8.43;5.80;;;;;;;13.39;48.55;100529.22;3570692;40;20378;-58
2021/04/28 09:21:59;;;;;;;;;;;;;;;13.80;45.84;100521.22;3571567;40;20481;-59
2021/04/28 09:24:29;;;;;;;9.52;5.70;;;;;;;13.67;47.00;100522.53;3570146;40;19960;-59
2021/04/28 09:26:56;;;;;;;9.93;6.07;;;;;;;13.39;46.23;100521.09;3570071;40;20053;-60
2021/04/28 09:29:25;;;;;;;10.13;6.25;;;;;;;13.47;48.40;100523.81;3570324;40;20063;-60
2021/04/28 09:31:58;;;;;;;;;;;;;;;13.80;46.75;100521.22;3571182;40;20073;-59
2021/04/28 09:34:25;;;;;;;8.40;5.80;;;;;;;14.19;44.86;100516.06;3569868;40;19960;-60
2021/04/28 09:37:00;;;;;;;6.95;5.80;;;;;;;14.28;45.29;100508.78;3570568;40;20392;-60
2021/04/28 09:39:27;;;;;;;8.77;5.50;;;;;;;14.34;43.08;100508.09;3570132;40;20054;-60
2021/04/28 09:41:56;;;;;;;11.10;6.28;;;;;;;14.36;44.31;100505.22;3570760;40;20053;-62
2021/04/28 09:44:29;;;;;;;9.43;5.72;;;;;;;14.35;46.13;100504.38;3569985;40;20438;-62
2021/04/28 09:47:00;;;;;;;8.30;6.03;;;;;;;14.47;45.00;100502.19;3569191;40;20081;-62
2021/04/28 09:49:27;;;;;;;8.20;6.22;;;;;;;14.45;43.80;100498.78;3569649;40;20041;-61
2021/04/28 09:51:56;;;;;;;10.32;6.28;;;;;;;14.65;42.58;100491.19;3571237;40;20517;-60
2021/04/28 09:54:30;;;;;;;10.88;6.60;;;;;;;14.62;42.92;100486.09;3568779;40;20056;-60
2021/04/28 09:56:57;;;;;;;7.53;6.13;;;;;;;14.61;41.90;100491.66;3571404;40;20084;-58
2021/04/28 09:59:40;;;;;;;8.82;5.88;;;;;;;14.92;42.40;100488.25;3570495;40;20072;-58
2021/04/28 10:02:06;;;;;;;8.57;6.32;;;;;;;14.96;42.82;100485.00;3570030;40;20162;-60
2021/04/28 10:04:32;;;;;;;9.55;6.13;;;;;;;15.05;41.90;100485.81;3570606;40;20412;-60
2021/04/28 10:06:59;;;;;;;10.52;6.50;;;;;;;14.80;40.64;100475.06;3570184;40;20396;-61
2021/04/28 10:09:34;;;;;;;9.80;6.25;;;;;;;14.97;41.35;100470.44;3569914;40;20060;-61
2021/04/28 10:12:02;;;;;;;10.40;6.15;;;;;;;15.06;41.87;100473.94;3569395;40;20335;-58
2021/04/28 10:14:29;;;;;;;9.40;6.78;;;;;;;14.87;41.36;100472.50;3568732;40;20345;-60
2021/04/28 10:16:57;;;;;;;9.32;6.55;;;;;;;14.54;42.03;100469.81;3570743;40;20093;-60
2021/04/28 10:19:24;;;;;;;7.72;5.95;;;;;;;14.51;43.25;100478.28;3569150;40;20158;-59
2021/04/28 10:21:51;;;;;;;9.02;6.45;;;;;;;14.41;43.36;100469.50;3570555;40;20053;-59
2021/04/28 10:24:19;;;;;;;13.13;6.93;;;;;;;14.59;42.44;100470.16;3568782;40;20135;-61
2021/04/28 10:26:47;;;;;;;8.90;6.28;;;;;;;14.61;41.08;100462.72;3569877;40;20122;-61
2021/04/28 10:29:15;;;;;;;11.90;7.00;;;;;;;14.84;41.27;100472.84;3569929;40;20135;-58
2021/04/28 10:31:44;;;;;;;10.02;5.97;;;;;;;15.63;40.42;100467.41;3569728;40;20060;-58
2021/04/28 10:34:12;;;;;;;7.97;6.40;;;;;;;15.74;39.71;100458.03;3569441;40;20105;-64
2021/04/28 10:36:42;;;;;;;8.10;5.90;;;;;;;15.96;37.86;100463.66;3569514;40;20652;-59
2021/04/28 10:39:09;;;;;;;10.18;6.40;;;;;;;16.24;38.38;100450.38;3570101;40;20117;-61
2021/04/28 10:41:42;;;;;;;7.68;6.70;;;;;;;16.49;38.09;100453.72;3568901;40;20145;-58
2021/04/28 10:44:39;;;;;;;11.82;6.72;;;;;;;16.46;37.52;100446.75;3570784;40;20089;-58
2021/04/28 10:47:24;;;;;;;8.55;6.82;;;;;;;16.87;38.25;100452.78;3570878;40;20052;-59
2021/04/28 10:50:12;;;;;;;8.05;6.80;;;;;;;16.86;36.82;100441.09;3570259;40;20052;-59
2021/04/28 10:52:43;;;;;;;9.18;6.80;;;;;;;16.48;36.87;100440.31;3570960;40;20041;-61
2021/04/28 10:55:36;;;;;;;8.45;7.00;;;;;;;16.40;36.49;100433.94;3571880;40;20040;-61
2021/04/28 10:58:02;;;;;;;12.73;7.25;;;;;;;16.77;35.97;100432.19;3572486;40;20304;-60
2021/04/28 11:00:29;;;;;;;9.93;7.00;;;;;;;17.05;35.82;100431.53;3570532;40;20124;-58
2021/04/28 11:02:55;;;;;;;10.38;7.25;;;;;;;17.09;35.15;100419.25;3571026;40;20158;-60
2021/04/28 11:05:26;;;;;;;10.82;6.90;;;;;;;16.90;35.13;100419.81;3570913;40;20127;-60
2021/04/28 11:07:54;;;;;;;11.27;7.55;;;;;;;17.01;35.91;100413.09;3572042;40;20075;-59
2021/04/28 11:10:38;;;;;;;9.87;6.30;;;;;;;17.30;36.29;100423.06;3572647;40;20044;-60
2021/04/28 11:13:16;;;;;;;10.13;7.40;;;;;;;17.24;35.65;100416.50;3572408;40;20050;-60
2021/04/28 11:15:51;;;;;;;11.07;7.87;;;;;;;17.54;35.42;100412.88;3572421;40;20407;-58
2021/04/28 11:18:28;;;;;;;16.88;7.43;;;;;;;17.56;36.16;100414.34;3570885;40;20048;-59
2021/04/28 11:21:26;;;;;;;9.73;6.90;;;;;;;17.64;35.10;100413.41;3572371;40;20049;-60
2021/04/28 11:24:06;;;;;;;8.73;6.30;;;;;;;17.85;34.02;100405.22;3571380;40;20124;-59
2021/04/28 11:26:34;;;;;;;11.30;6.85;;;;;;;17.90;34.96;100415.53;3571268;40;20056;-59
2021/04/28 11:29:00;;;;;;;13.40;7.22;;;;;;;17.81;34.79;100395.75;3572244;40;20053;-58
2021/04/28 11:31:41;;;;;;;12.23;7.15;;;;;;;18.10;33.72;100396.66;3571996;40;20072;-59
2021/04/28 11:34:18;;;;;;;10.38;7.30;;;;;;;18.09;34.06;100392.25;3571335;40;20101;-64